sensor_id;sensor_type;location;lat;lon;timestamp;P1;durP1;ratioP1;P2;durP2;ratioP2
45366;SDS011;31100;55.848;37.636;2023-06-22T00:01:48;12.25;;;5.97;;
45366;SDS011;31100;55.848;37.636;2023-06-22T00:04:13;10.98;;;5.15;;
45366;SDS011;31100;55.848;37.636;2023-06-22T00:06:39;12.00;;;5.63;;
45366;SDS011;31100;55.848;37.636;2023-06-22T00:09:04;12.57;;;5.55;;
45366;SDS011;31100;55.848;37.636;2023-06-22T00:11:31;14.75;;;6.07;;
45366;SDS011;31100;55.848;37.636;2023-06-22T00:13:58;12.52;;;6.60;;
45366;SDS011;31100;55.848;37.636;2023-06-22T00:16:24;14.55;;;5.82;;
45366;SDS011;31100;55.848;37.636;2023-06-22T00:18:50;13.45;;;5.90;;
45366;SDS011;31100;55.848;37.636;2023-06-22T00:21:15;12.82;;;5.97;;
45366;SDS011;31100;55.848;37.636;2023-06-22T00:23:40;12.07;;;5.43;;
45366;SDS011;31100;55.848;37.636;2023-06-22T00:26:06;11.65;;;5.85;;
45366;SDS011;31100;55.848;37.636;2023-06-22T00:28:32;12.65;;;5.60;;
45366;SDS011;31100;55.848;37.636;2023-06-22T00:30:58;12.48;;;5.40;;
45366;SDS011;31100;55.848;37.636;2023-06-22T00:33:25;12.10;;;6.03;;
45366;SDS011;31100;55.848;37.636;2023-06-22T00:35:51;10.30;;;5.75;;
45366;SDS011;31100;55.848;37.636;2023-06-22T00:38:18;12.63;;;5.60;;
45366;SDS011;31100;55.848;37.636;2023-06-22T00:40:44;8.32;;;5.18;;
45366;SDS011;31100;55.848;37.636;2023-06-22T00:43:10;8.60;;;5.63;;
45366;SDS011;31100;55.848;37.636;2023-06-22T00:45:35;13.90;;;6.03;;
45366;SDS011;31100;55.848;37.636;2023-06-22T00:48:01;11.50;;;5.63;;
45366;SDS011;31100;55.848;37.636;2023-06-22T00:50:28;11.50;;;6.78;;
45366;SDS011;31100;55.848;37.636;2023-06-22T00:52:58;12.15;;;5.65;;
45366;SDS011;31100;55.848;37.636;2023-06-22T00:55:25;10.57;;;6.03;;
45366;SDS011;31100;55.848;37.636;2023-06-22T00:57:52;16.48;;;6.03;;
45366;SDS011;31100;55.848;37.636;2023-06-22T01:00:22;11.27;;;6.05;;
45366;SDS011;31100;55.848;37.636;2023-06-22T01:02:51;12.43;;;6.63;;
45366;SDS011;31100;55.848;37.636;2023-06-22T01:05:21;13.35;;;6.43;;
45366;SDS011;31100;55.848;37.636;2023-06-22T01:13:04;13.00;;;6.28;;
45366;SDS011;31100;55.848;37.636;2023-06-22T01:15:36;11.20;;;6.38;;
45366;SDS011;31100;55.848;37.636;2023-06-22T01:18:11;13.48;;;6.43;;
45366;SDS011;31100;55.848;37.636;2023-06-22T01:20:37;13.60;;;6.28;;
45366;SDS011;31100;55.848;37.636;2023-06-22T01:25:43;14.07;;;6.93;;
45366;SDS011;31100;55.848;37.636;2023-06-22T01:30:56;11.88;;;6.07;;
45366;SDS011;31100;55.848;37.636;2023-06-22T01:33:34;13.43;;;6.80;;
45366;SDS011;31100;55.848;37.636;2023-06-22T01:36:01;13.63;;;6.00;;
45366;SDS011;31100;55.848;37.636;2023-06-22T01:38:28;12.27;;;6.13;;
45366;SDS011;31100;55.848;37.636;2023-06-22T01:40:54;13.43;;;6.50;;
45366;SDS011;31100;55.848;37.636;2023-06-22T01:43:22;14.00;;;7.43;;
45366;SDS011;31100;55.848;37.636;2023-06-22T01:45:50;19.25;;;6.40;;
45366;SDS011;31100;55.848;37.636;2023-06-22T01:48:16;13.10;;;6.30;;
45366;SDS011;31100;55.848;37.636;2023-06-22T01:50:43;11.13;;;6.07;;
45366;SDS011;31100;55.848;37.636;2023-06-22T01:53:08;12.95;;;5.78;;
45366;SDS011;31100;55.848;37.636;2023-06-22T01:55:34;12.35;;;5.60;;
45366;SDS011;31100;55.848;37.636;2023-06-22T01:57:59;13.07;;;5.75;;
45366;SDS011;31100;55.848;37.636;2023-06-22T02:00:25;11.13;;;5.63;;
45366;SDS011;31100;55.848;37.636;2023-06-22T02:02:57;16.38;;;6.25;;
45366;SDS011;31100;55.848;37.636;2023-06-22T02:05:26;19.02;;;6.95;;
45366;SDS011;31100;55.848;37.636;2023-06-22T02:08:07;12.02;;;6.35;;
45366;SDS011;31100;55.848;37.636;2023-06-22T02:10:35;11.98;;;6.50;;
45366;SDS011;31100;55.848;37.636;2023-06-22T02:13:02;13.88;;;6.18;;
45366;SDS011;31100;55.848;37.636;2023-06-22T02:15:37;18.33;;;6.70;;
45366;SDS011;31100;55.848;37.636;2023-06-22T02:18:03;12.65;;;6.53;;
45366;SDS011;31100;55.848;37.636;2023-06-22T02:20:29;18.88;;;7.20;;
45366;SDS011;31100;55.848;37.636;2023-06-22T02:22:54;13.82;;;6.40;;
45366;SDS011;31100;55.848;37.636;2023-06-22T02:25:20;17.63;;;8.05;;
45366;SDS011;31100;55.848;37.636;2023-06-22T02:27:46;19.55;;;8.23;;
45366;SDS011;31100;55.848;37.636;2023-06-22T02:30:11;18.33;;;8.35;;
45366;SDS011;31100;55.848;37.636;2023-06-22T02:32:37;23.70;;;9.20;;
45366;SDS011;31100;55.848;37.636;2023-06-22T02:35:06;25.67;;;9.45;;
45366;SDS011;31100;55.848;37.636;2023-06-22T02:37:33;25.40;;;9.23;;
45366;SDS011;31100;55.848;37.636;2023-06-22T02:40:01;23.02;;;8.65;;
45366;SDS011;31100;55.848;37.636;2023-06-22T02:42:28;18.42;;;7.85;;
45366;SDS011;31100;55.848;37.636;2023-06-22T02:44:53;21.52;;;8.68;;
45366;SDS011;31100;55.848;37.636;2023-06-22T02:47:19;21.58;;;9.57;;
45366;SDS011;31100;55.848;37.636;2023-06-22T02:49:44;21.15;;;8.52;;
45366;SDS011;31100;55.848;37.636;2023-06-22T02:52:10;20.80;;;8.93;;
45366;SDS011;31100;55.848;37.636;2023-06-22T02:54:36;19.25;;;9.07;;
45366;SDS011;31100;55.848;37.636;2023-06-22T02:57:01;20.52;;;10.10;;
45366;SDS011;31100;55.848;37.636;2023-06-22T02:59:27;17.67;;;7.85;;
45366;SDS011;31100;55.848;37.636;2023-06-22T03:01:53;20.17;;;7.65;;
45366;SDS011;31100;55.848;37.636;2023-06-22T03:04:19;16.13;;;7.90;;
45366;SDS011;31100;55.848;37.636;2023-06-22T03:06:44;17.85;;;8.27;;
45366;SDS011;31100;55.848;37.636;2023-06-22T03:09:16;18.52;;;8.23;;
45366;SDS011;31100;55.848;37.636;2023-06-22T03:11:41;20.02;;;8.57;;
45366;SDS011;31100;55.848;37.636;2023-06-22T03:14:07;18.45;;;8.27;;
45366;SDS011;31100;55.848;37.636;2023-06-22T03:16:32;20.73;;;8.25;;
45366;SDS011;31100;55.848;37.636;2023-06-22T03:18:58;13.63;;;8.05;;
45366;SDS011;31100;55.848;37.636;2023-06-22T03:21:26;15.50;;;7.80;;
45366;SDS011;31100;55.848;37.636;2023-06-22T03:23:53;15.40;;;8.10;;
45366;SDS011;31100;55.848;37.636;2023-06-22T03:26:18;17.08;;;7.70;;
45366;SDS011;31100;55.848;37.636;2023-06-22T03:28:44;13.32;;;7.80;;
45366;SDS011;31100;55.848;37.636;2023-06-22T03:31:10;14.75;;;7.75;;
45366;SDS011;31100;55.848;37.636;2023-06-22T03:33:35;17.17;;;7.90;;
45366;SDS011;31100;55.848;37.636;2023-06-22T03:36:02;18.85;;;8.02;;
45366;SDS011;31100;55.848;37.636;2023-06-22T03:38:27;13.70;;;7.63;;
45366;SDS011;31100;55.848;37.636;2023-06-22T03:40:53;13.68;;;8.05;;
45366;SDS011;31100;55.848;37.636;2023-06-22T03:43:18;14.00;;;7.75;;
45366;SDS011;31100;55.848;37.636;2023-06-22T03:45:44;13.10;;;7.07;;
45366;SDS011;31100;55.848;37.636;2023-06-22T03:48:12;15.65;;;7.13;;
45366;SDS011;31100;55.848;37.636;2023-06-22T03:50:38;10.85;;;6.43;;
45366;SDS011;31100;55.848;37.636;2023-06-22T03:53:03;11.50;;;6.35;;
45366;SDS011;31100;55.848;37.636;2023-06-22T03:55:29;14.82;;;6.00;;
45366;SDS011;31100;55.848;37.636;2023-06-22T03:57:56;12.65;;;6.72;;
45366;SDS011;31100;55.848;37.636;2023-06-22T04:00:23;9.75;;;5.35;;
45366;SDS011;31100;55.848;37.636;2023-06-22T04:02:50;12.90;;;5.85;;
45366;SDS011;31100;55.848;37.636;2023-06-22T04:05:15;15.80;;;4.85;;
45366;SDS011;31100;55.848;37.636;2023-06-22T04:07:43;8.77;;;4.65;;
45366;SDS011;31100;55.848;37.636;2023-06-22T04:10:08;10.32;;;5.05;;
45366;SDS011;31100;55.848;37.636;2023-06-22T04:12:36;6.45;;;4.10;;
45366;SDS011;31100;55.848;37.636;2023-06-22T04:15:02;8.52;;;4.30;;
45366;SDS011;31100;55.848;37.636;2023-06-22T04:17:27;6.70;;;4.05;;
45366;SDS011;31100;55.848;37.636;2023-06-22T04:19:53;7.85;;;4.40;;
45366;SDS011;31100;55.848;37.636;2023-06-22T04:22:18;6.60;;;3.60;;
45366;SDS011;31100;55.848;37.636;2023-06-22T04:24:44;6.75;;;3.55;;
45366;SDS011;31100;55.848;37.636;2023-06-22T04:27:10;7.60;;;4.18;;
45366;SDS011;31100;55.848;37.636;2023-06-22T04:29:35;8.10;;;3.78;;
45366;SDS011;31100;55.848;37.636;2023-06-22T04:32:01;7.72;;;3.65;;
45366;SDS011;31100;55.848;37.636;2023-06-22T04:34:30;5.57;;;3.67;;
45366;SDS011;31100;55.848;37.636;2023-06-22T04:36:56;5.63;;;3.60;;
45366;SDS011;31100;55.848;37.636;2023-06-22T04:39:22;5.97;;;3.40;;
45366;SDS011;31100;55.848;37.636;2023-06-22T04:41:48;7.28;;;3.65;;
45366;SDS011;31100;55.848;37.636;2023-06-22T04:44:15;7.43;;;3.63;;
45366;SDS011;31100;55.848;37.636;2023-06-22T04:46:51;7.93;;;3.65;;
45366;SDS011;31100;55.848;37.636;2023-06-22T04:49:22;7.70;;;3.70;;
45366;SDS011;31100;55.848;37.636;2023-06-22T04:51:48;8.23;;;3.60;;
45366;SDS011;31100;55.848;37.636;2023-06-22T04:54:16;6.43;;;4.00;;
45366;SDS011;31100;55.848;37.636;2023-06-22T04:56:42;7.28;;;4.00;;
45366;SDS011;31100;55.848;37.636;2023-06-22T04:59:07;6.82;;;3.65;;
45366;SDS011;31100;55.848;37.636;2023-06-22T05:01:33;7.10;;;4.18;;
45366;SDS011;31100;55.848;37.636;2023-06-22T05:04:00;6.35;;;3.90;;
45366;SDS011;31100;55.848;37.636;2023-06-22T05:06:26;8.60;;;4.00;;
45366;SDS011;31100;55.848;37.636;2023-06-22T05:08:55;8.20;;;4.10;;
45366;SDS011;31100;55.848;37.636;2023-06-22T05:11:23;8.55;;;4.20;;
45366;SDS011;31100;55.848;37.636;2023-06-22T05:13:49;8.52;;;4.18;;
45366;SDS011;31100;55.848;37.636;2023-06-22T05:16:15;7.25;;;4.38;;
45366;SDS011;31100;55.848;37.636;2023-06-22T05:18:41;6.93;;;3.92;;
45366;SDS011;31100;55.848;37.636;2023-06-22T05:21:06;7.43;;;4.20;;
45366;SDS011;31100;55.848;37.636;2023-06-22T05:23:32;8.82;;;4.13;;
45366;SDS011;31100;55.848;37.636;2023-06-22T05:25:57;6.20;;;3.83;;
45366;SDS011;31100;55.848;37.636;2023-06-22T05:28:23;7.10;;;4.05;;
45366;SDS011;31100;55.848;37.636;2023-06-22T05:30:48;6.63;;;4.20;;
45366;SDS011;31100;55.848;37.636;2023-06-22T05:33:14;7.70;;;4.40;;
45366;SDS011;31100;55.848;37.636;2023-06-22T05:35:39;6.82;;;4.47;;
45366;SDS011;31100;55.848;37.636;2023-06-22T05:38:05;7.93;;;4.28;;
45366;SDS011;31100;55.848;37.636;2023-06-22T05:40:30;7.90;;;4.40;;
45366;SDS011;31100;55.848;37.636;2023-06-22T05:42:56;6.40;;;4.18;;
45366;SDS011;31100;55.848;37.636;2023-06-22T05:45:21;5.72;;;4.25;;
45366;SDS011;31100;55.848;37.636;2023-06-22T05:47:47;10.00;;;3.65;;
45366;SDS011;31100;55.848;37.636;2023-06-22T05:50:12;7.97;;;5.07;;
45366;SDS011;31100;55.848;37.636;2023-06-22T05:52:38;9.70;;;4.60;;
45366;SDS011;31100;55.848;37.636;2023-06-22T05:55:03;10.27;;;4.03;;
45366;SDS011;31100;55.848;37.636;2023-06-22T05:57:29;8.57;;;4.13;;
45366;SDS011;31100;55.848;37.636;2023-06-22T05:59:54;7.32;;;4.22;;
45366;SDS011;31100;55.848;37.636;2023-06-22T06:02:20;7.35;;;4.47;;
45366;SDS011;31100;55.848;37.636;2023-06-22T06:04:46;6.80;;;4.38;;
45366;SDS011;31100;55.848;37.636;2023-06-22T06:07:11;9.20;;;3.85;;
45366;SDS011;31100;55.848;37.636;2023-06-22T06:09:37;7.40;;;3.65;;
45366;SDS011;31100;55.848;37.636;2023-06-22T06:12:03;8.95;;;3.78;;
45366;SDS011;31100;55.848;37.636;2023-06-22T06:14:28;9.13;;;3.80;;
45366;SDS011;31100;55.848;37.636;2023-06-22T06:16:54;6.68;;;3.72;;
45366;SDS011;31100;55.848;37.636;2023-06-22T06:19:19;9.35;;;3.90;;
45366;SDS011;31100;55.848;37.636;2023-06-22T06:21:45;5.88;;;3.65;;
45366;SDS011;31100;55.848;37.636;2023-06-22T06:24:11;8.75;;;3.88;;
45366;SDS011;31100;55.848;37.636;2023-06-22T06:26:37;9.13;;;3.85;;
45366;SDS011;31100;55.848;37.636;2023-06-22T06:29:02;6.50;;;3.30;;
45366;SDS011;31100;55.848;37.636;2023-06-22T06:31:28;9.98;;;3.72;;
45366;SDS011;31100;55.848;37.636;2023-06-22T06:33:54;6.30;;;4.15;;
45366;SDS011;31100;55.848;37.636;2023-06-22T06:36:20;7.70;;;3.90;;
45366;SDS011;31100;55.848;37.636;2023-06-22T06:38:46;12.80;;;11.00;;
45366;SDS011;31100;55.848;37.636;2023-06-22T06:41:15;7.22;;;4.45;;
45366;SDS011;31100;55.848;37.636;2023-06-22T06:43:41;7.05;;;3.95;;
45366;SDS011;31100;55.848;37.636;2023-06-22T06:46:10;6.07;;;4.10;;
45366;SDS011;31100;55.848;37.636;2023-06-22T06:48:35;9.60;;;4.53;;
45366;SDS011;31100;55.848;37.636;2023-06-22T06:51:01;10.15;;;3.92;;
45366;SDS011;31100;55.848;37.636;2023-06-22T06:53:26;8.73;;;3.67;;
45366;SDS011;31100;55.848;37.636;2023-06-22T06:55:53;7.63;;;4.00;;
45366;SDS011;31100;55.848;37.636;2023-06-22T06:58:18;7.18;;;3.78;;
45366;SDS011;31100;55.848;37.636;2023-06-22T07:00:44;6.07;;;4.13;;
45366;SDS011;31100;55.848;37.636;2023-06-22T07:03:10;5.97;;;3.75;;
45366;SDS011;31100;55.848;37.636;2023-06-22T07:05:35;6.03;;;3.75;;
45366;SDS011;31100;55.848;37.636;2023-06-22T07:08:01;8.05;;;3.38;;
45366;SDS011;31100;55.848;37.636;2023-06-22T07:10:27;5.75;;;3.67;;
45366;SDS011;31100;55.848;37.636;2023-06-22T07:12:53;5.05;;;3.53;;
45366;SDS011;31100;55.848;37.636;2023-06-22T07:15:19;7.50;;;3.22;;
45366;SDS011;31100;55.848;37.636;2023-06-22T07:17:44;8.52;;;3.45;;
45366;SDS011;31100;55.848;37.636;2023-06-22T07:20:10;5.95;;;3.45;;
45366;SDS011;31100;55.848;37.636;2023-06-22T07:22:40;8.93;;;4.22;;
45366;SDS011;31100;55.848;37.636;2023-06-22T07:25:07;7.78;;;3.83;;
45366;SDS011;31100;55.848;37.636;2023-06-22T07:27:42;7.77;;;3.30;;
45366;SDS011;31100;55.848;37.636;2023-06-22T07:30:10;8.68;;;4.05;;
45366;SDS011;31100;55.848;37.636;2023-06-22T07:32:36;7.18;;;3.60;;
45366;SDS011;31100;55.848;37.636;2023-06-22T07:35:02;7.18;;;4.20;;
45366;SDS011;31100;55.848;37.636;2023-06-22T07:37:29;5.72;;;4.20;;
45366;SDS011;31100;55.848;37.636;2023-06-22T07:39:55;4.95;;;3.50;;
45366;SDS011;31100;55.848;37.636;2023-06-22T07:42:26;6.15;;;3.72;;
45366;SDS011;31100;55.848;37.636;2023-06-22T07:44:53;8.90;;;3.50;;
45366;SDS011;31100;55.848;37.636;2023-06-22T07:47:19;6.20;;;3.30;;
45366;SDS011;31100;55.848;37.636;2023-06-22T07:49:48;6.97;;;3.50;;
45366;SDS011;31100;55.848;37.636;2023-06-22T07:52:13;5.75;;;3.72;;
45366;SDS011;31100;55.848;37.636;2023-06-22T07:54:39;8.27;;;4.25;;
45366;SDS011;31100;55.848;37.636;2023-06-22T07:57:05;6.75;;;3.90;;
45366;SDS011;31100;55.848;37.636;2023-06-22T07:59:30;5.97;;;3.50;;
45366;SDS011;31100;55.848;37.636;2023-06-22T08:01:56;5.82;;;3.63;;
45366;SDS011;31100;55.848;37.636;2023-06-22T08:04:21;8.52;;;3.60;;
45366;SDS011;31100;55.848;37.636;2023-06-22T08:06:47;5.75;;;3.78;;
45366;SDS011;31100;55.848;37.636;2023-06-22T08:09:12;7.57;;;3.78;;
45366;SDS011;31100;55.848;37.636;2023-06-22T08:11:38;6.50;;;3.70;;
45366;SDS011;31100;55.848;37.636;2023-06-22T08:14:03;5.30;;;3.88;;
45366;SDS011;31100;55.848;37.636;2023-06-22T08:16:28;9.75;;;4.82;;
45366;SDS011;31100;55.848;37.636;2023-06-22T08:18:54;7.70;;;3.78;;
45366;SDS011;31100;55.848;37.636;2023-06-22T08:21:20;5.43;;;3.45;;
45366;SDS011;31100;55.848;37.636;2023-06-22T08:23:45;6.65;;;3.38;;
45366;SDS011;31100;55.848;37.636;2023-06-22T08:26:11;4.72;;;3.13;;
45366;SDS011;31100;55.848;37.636;2023-06-22T08:28:36;5.95;;;3.53;;
45366;SDS011;31100;55.848;37.636;2023-06-22T08:31:02;6.07;;;3.72;;
45366;SDS011;31100;55.848;37.636;2023-06-22T08:33:28;7.80;;;3.67;;
45366;SDS011;31100;55.848;37.636;2023-06-22T08:35:57;9.05;;;3.53;;
45366;SDS011;31100;55.848;37.636;2023-06-22T08:38:23;7.65;;;3.40;;
45366;SDS011;31100;55.848;37.636;2023-06-22T08:40:49;8.88;;;4.10;;
45366;SDS011;31100;55.848;37.636;2023-06-22T08:43:14;5.40;;;3.50;;
45366;SDS011;31100;55.848;37.636;2023-06-22T08:45:40;7.55;;;3.70;;
45366;SDS011;31100;55.848;37.636;2023-06-22T08:48:06;8.10;;;3.63;;
45366;SDS011;31100;55.848;37.636;2023-06-22T08:50:31;5.72;;;3.63;;
45366;SDS011;31100;55.848;37.636;2023-06-22T08:52:57;6.05;;;3.60;;
45366;SDS011;31100;55.848;37.636;2023-06-22T08:55:22;7.57;;;3.78;;
45366;SDS011;31100;55.848;37.636;2023-06-22T08:57:48;4.78;;;3.58;;
45366;SDS011;31100;55.848;37.636;2023-06-22T09:00:14;5.70;;;3.80;;
45366;SDS011;31100;55.848;37.636;2023-06-22T09:02:45;6.32;;;3.50;;
45366;SDS011;31100;55.848;37.636;2023-06-22T09:05:11;6.60;;;4.05;;
45366;SDS011;31100;55.848;37.636;2023-06-22T09:07:37;5.90;;;3.30;;
45366;SDS011;31100;55.848;37.636;2023-06-22T09:10:06;5.47;;;3.85;;
45366;SDS011;31100;55.848;37.636;2023-06-22T09:12:32;5.57;;;3.22;;
45366;SDS011;31100;55.848;37.636;2023-06-22T09:14:58;6.90;;;3.90;;
45366;SDS011;31100;55.848;37.636;2023-06-22T09:17:27;5.80;;;3.60;;
45366;SDS011;31100;55.848;37.636;2023-06-22T09:20:02;7.25;;;4.72;;
45366;SDS011;31100;55.848;37.636;2023-06-22T09:22:30;6.03;;;3.58;;
45366;SDS011;31100;55.848;37.636;2023-06-22T09:24:56;5.68;;;3.58;;
45366;SDS011;31100;55.848;37.636;2023-06-22T09:27:22;4.97;;;3.70;;
45366;SDS011;31100;55.848;37.636;2023-06-22T09:29:47;8.18;;;4.10;;
45366;SDS011;31100;55.848;37.636;2023-06-22T09:32:13;6.10;;;3.78;;
45366;SDS011;31100;55.848;37.636;2023-06-22T09:34:39;6.10;;;3.75;;
45366;SDS011;31100;55.848;37.636;2023-06-22T09:37:04;7.78;;;3.72;;
45366;SDS011;31100;55.848;37.636;2023-06-22T09:39:30;5.82;;;3.65;;
45366;SDS011;31100;55.848;37.636;2023-06-22T09:41:57;5.05;;;3.80;;
45366;SDS011;31100;55.848;37.636;2023-06-22T09:44:24;11.68;;;4.47;;
45366;SDS011;31100;55.848;37.636;2023-06-22T09:46:49;6.15;;;4.40;;
45366;SDS011;31100;55.848;37.636;2023-06-22T09:49:15;7.53;;;3.90;;
45366;SDS011;31100;55.848;37.636;2023-06-22T09:51:40;6.35;;;3.90;;
45366;SDS011;31100;55.848;37.636;2023-06-22T09:54:06;6.97;;;4.07;;
45366;SDS011;31100;55.848;37.636;2023-06-22T09:56:31;8.73;;;3.90;;
45366;SDS011;31100;55.848;37.636;2023-06-22T09:58:57;6.45;;;3.83;;
45366;SDS011;31100;55.848;37.636;2023-06-22T10:01:23;9.32;;;4.07;;
45366;SDS011;31100;55.848;37.636;2023-06-22T10:03:49;4.93;;;3.60;;
45366;SDS011;31100;55.848;37.636;2023-06-22T10:06:15;7.68;;;4.45;;
45366;SDS011;31100;55.848;37.636;2023-06-22T10:08:40;6.85;;;4.30;;
45366;SDS011;31100;55.848;37.636;2023-06-22T10:11:06;7.53;;;4.00;;
45366;SDS011;31100;55.848;37.636;2023-06-22T10:13:32;5.75;;;4.00;;
45366;SDS011;31100;55.848;37.636;2023-06-22T10:15:57;5.20;;;3.80;;
45366;SDS011;31100;55.848;37.636;2023-06-22T10:18:23;8.20;;;4.22;;
45366;SDS011;31100;55.848;37.636;2023-06-22T10:20:49;6.65;;;4.93;;
45366;SDS011;31100;55.848;37.636;2023-06-22T10:23:16;5.85;;;4.03;;
45366;SDS011;31100;55.848;37.636;2023-06-22T10:25:42;8.95;;;3.92;;
45366;SDS011;31100;55.848;37.636;2023-06-22T10:28:08;6.22;;;4.10;;
45366;SDS011;31100;55.848;37.636;2023-06-22T10:30:33;6.82;;;4.20;;
45366;SDS011;31100;55.848;37.636;2023-06-22T10:32:59;5.05;;;3.65;;
45366;SDS011;31100;55.848;37.636;2023-06-22T10:35:24;5.95;;;4.13;;
45366;SDS011;31100;55.848;37.636;2023-06-22T10:37:50;7.00;;;3.80;;
45366;SDS011;31100;55.848;37.636;2023-06-22T10:40:16;7.45;;;4.68;;
45366;SDS011;31100;55.848;37.636;2023-06-22T10:42:42;5.85;;;4.70;;
45366;SDS011;31100;55.848;37.636;2023-06-22T10:45:08;9.18;;;4.60;;
45366;SDS011;31100;55.848;37.636;2023-06-22T10:47:34;5.47;;;4.10;;
45366;SDS011;31100;55.848;37.636;2023-06-22T10:50:00;7.35;;;4.40;;
45366;SDS011;31100;55.848;37.636;2023-06-22T10:52:26;7.13;;;4.70;;
45366;SDS011;31100;55.848;37.636;2023-06-22T10:54:51;7.72;;;4.40;;
45366;SDS011;31100;55.848;37.636;2023-06-22T10:57:17;7.70;;;4.55;;
45366;SDS011;31100;55.848;37.636;2023-06-22T10:59:43;8.48;;;5.78;;
45366;SDS011;31100;55.848;37.636;2023-06-22T11:02:08;6.88;;;4.90;;
45366;SDS011;31100;55.848;37.636;2023-06-22T11:04:34;7.68;;;4.57;;
45366;SDS011;31100;55.848;37.636;2023-06-22T11:07:00;6.65;;;4.43;;
45366;SDS011;31100;55.848;37.636;2023-06-22T11:09:25;8.65;;;4.45;;
45366;SDS011;31100;55.848;37.636;2023-06-22T11:11:51;6.55;;;4.47;;
45366;SDS011;31100;55.848;37.636;2023-06-22T11:14:20;5.88;;;4.00;;
45366;SDS011;31100;55.848;37.636;2023-06-22T11:16:45;6.20;;;4.03;;
45366;SDS011;31100;55.848;37.636;2023-06-22T11:19:14;7.60;;;4.47;;
45366;SDS011;31100;55.848;37.636;2023-06-22T11:21:40;6.93;;;4.07;;
45366;SDS011;31100;55.848;37.636;2023-06-22T11:24:05;6.38;;;4.00;;
45366;SDS011;31100;55.848;37.636;2023-06-22T11:26:31;6.78;;;3.90;;
45366;SDS011;31100;55.848;37.636;2023-06-22T11:28:57;8.00;;;4.50;;
45366;SDS011;31100;55.848;37.636;2023-06-22T11:31:23;8.27;;;4.80;;
45366;SDS011;31100;55.848;37.636;2023-06-22T11:33:49;7.03;;;4.40;;
45366;SDS011;31100;55.848;37.636;2023-06-22T11:36:14;6.10;;;4.25;;
45366;SDS011;31100;55.848;37.636;2023-06-22T11:38:43;8.35;;;4.30;;
45366;SDS011;31100;55.848;37.636;2023-06-22T11:41:09;8.48;;;4.60;;
45366;SDS011;31100;55.848;37.636;2023-06-22T11:43:35;7.63;;;4.47;;
45366;SDS011;31100;55.848;37.636;2023-06-22T11:46:02;9.07;;;4.68;;
45366;SDS011;31100;55.848;37.636;2023-06-22T11:48:28;9.05;;;4.55;;
45366;SDS011;31100;55.848;37.636;2023-06-22T11:50:54;21.15;;;6.68;;
45366;SDS011;31100;55.848;37.636;2023-06-22T11:53:20;7.00;;;4.60;;
45366;SDS011;31100;55.848;37.636;2023-06-22T11:55:49;9.73;;;4.55;;
45366;SDS011;31100;55.848;37.636;2023-06-22T11:58:15;8.25;;;4.30;;
45366;SDS011;31100;55.848;37.636;2023-06-22T12:00:41;8.20;;;4.57;;
45366;SDS011;31100;55.848;37.636;2023-06-22T12:03:07;5.93;;;4.70;;
45366;SDS011;31100;55.848;37.636;2023-06-22T12:05:32;6.88;;;4.75;;
45366;SDS011;31100;55.848;37.636;2023-06-22T12:07:58;7.97;;;4.65;;
45366;SDS011;31100;55.848;37.636;2023-06-22T12:10:25;8.02;;;4.70;;
45366;SDS011;31100;55.848;37.636;2023-06-22T12:12:51;8.20;;;4.28;;
45366;SDS011;31100;55.848;37.636;2023-06-22T12:15:16;7.43;;;4.63;;
45366;SDS011;31100;55.848;37.636;2023-06-22T12:17:42;6.30;;;4.85;;
45366;SDS011;31100;55.848;37.636;2023-06-22T12:20:09;11.00;;;4.90;;
45366;SDS011;31100;55.848;37.636;2023-06-22T12:22:35;6.97;;;5.00;;
45366;SDS011;31100;55.848;37.636;2023-06-22T12:25:02;6.82;;;4.50;;
45366;SDS011;31100;55.848;37.636;2023-06-22T12:27:28;9.55;;;5.70;;
45366;SDS011;31100;55.848;37.636;2023-06-22T12:29:55;9.73;;;5.22;;
45366;SDS011;31100;55.848;37.636;2023-06-22T12:32:21;7.78;;;4.88;;
45366;SDS011;31100;55.848;37.636;2023-06-22T12:34:46;6.93;;;4.70;;
45366;SDS011;31100;55.848;37.636;2023-06-22T12:37:12;10.63;;;4.85;;
45366;SDS011;31100;55.848;37.636;2023-06-22T12:39:39;6.97;;;4.45;;
45366;SDS011;31100;55.848;37.636;2023-06-22T12:42:06;8.10;;;5.00;;
45366;SDS011;31100;55.848;37.636;2023-06-22T12:44:33;10.05;;;5.18;;
45366;SDS011;31100;55.848;37.636;2023-06-22T12:46:59;7.07;;;4.95;;
45366;SDS011;31100;55.848;37.636;2023-06-22T12:49:25;7.50;;;5.38;;
45366;SDS011;31100;55.848;37.636;2023-06-22T12:51:50;8.63;;;5.63;;
45366;SDS011;31100;55.848;37.636;2023-06-22T12:54:16;8.38;;;5.10;;
45366;SDS011;31100;55.848;37.636;2023-06-22T12:56:41;5.40;;;4.68;;
45366;SDS011;31100;55.848;37.636;2023-06-22T12:59:08;6.18;;;5.07;;
45366;SDS011;31100;55.848;37.636;2023-06-22T13:01:34;6.35;;;5.07;;
45366;SDS011;31100;55.848;37.636;2023-06-22T13:04:00;6.45;;;4.85;;
45366;SDS011;31100;55.848;37.636;2023-06-22T13:06:25;7.43;;;4.75;;
45366;SDS011;31100;55.848;37.636;2023-06-22T13:08:51;8.80;;;5.18;;
45366;SDS011;31100;55.848;37.636;2023-06-22T13:11:16;6.50;;;4.93;;
45366;SDS011;31100;55.848;37.636;2023-06-22T13:13:43;9.00;;;5.43;;
45366;SDS011;31100;55.848;37.636;2023-06-22T13:16:09;6.47;;;5.00;;
45366;SDS011;31100;55.848;37.636;2023-06-22T13:18:34;5.65;;;4.97;;
45366;SDS011;31100;55.848;37.636;2023-06-22T13:21:01;7.88;;;5.25;;
45366;SDS011;31100;55.848;37.636;2023-06-22T13:23:27;8.52;;;5.45;;
45366;SDS011;31100;55.848;37.636;2023-06-22T13:25:53;7.30;;;5.65;;
45366;SDS011;31100;55.848;37.636;2023-06-22T13:28:18;7.25;;;5.85;;
45366;SDS011;31100;55.848;37.636;2023-06-22T13:30:43;7.28;;;5.22;;
45366;SDS011;31100;55.848;37.636;2023-06-22T13:33:12;8.10;;;5.72;;
45366;SDS011;31100;55.848;37.636;2023-06-22T13:35:40;7.70;;;5.63;;
45366;SDS011;31100;55.848;37.636;2023-06-22T13:38:07;10.25;;;5.72;;
45366;SDS011;31100;55.848;37.636;2023-06-22T13:40:34;6.03;;;5.35;;
45366;SDS011;31100;55.848;37.636;2023-06-22T13:42:59;6.75;;;5.43;;
45366;SDS011;31100;55.848;37.636;2023-06-22T13:45:25;8.10;;;5.10;;
45366;SDS011;31100;55.848;37.636;2023-06-22T13:47:51;9.30;;;5.38;;
45366;SDS011;31100;55.848;37.636;2023-06-22T13:50:16;7.65;;;5.15;;
45366;SDS011;31100;55.848;37.636;2023-06-22T13:52:42;8.75;;;5.00;;
45366;SDS011;31100;55.848;37.636;2023-06-22T13:55:08;6.63;;;4.80;;
45366;SDS011;31100;55.848;37.636;2023-06-22T13:57:35;8.52;;;5.05;;
45366;SDS011;31100;55.848;37.636;2023-06-22T14:00:00;7.95;;;5.03;;
45366;SDS011;31100;55.848;37.636;2023-06-22T14:02:27;9.50;;;5.97;;
45366;SDS011;31100;55.848;37.636;2023-06-22T14:04:53;7.70;;;4.95;;
45366;SDS011;31100;55.848;37.636;2023-06-22T14:07:18;9.23;;;5.40;;
45366;SDS011;31100;55.848;37.636;2023-06-22T14:09:47;6.22;;;5.07;;
45366;SDS011;31100;55.848;37.636;2023-06-22T14:12:13;6.97;;;4.90;;
45366;SDS011;31100;55.848;37.636;2023-06-22T14:14:38;6.82;;;5.10;;
45366;SDS011;31100;55.848;37.636;2023-06-22T14:17:04;6.93;;;4.40;;
45366;SDS011;31100;55.848;37.636;2023-06-22T14:19:30;7.97;;;4.68;;
45366;SDS011;31100;55.848;37.636;2023-06-22T14:21:56;7.95;;;5.57;;
45366;SDS011;31100;55.848;37.636;2023-06-22T14:24:24;6.95;;;5.35;;
45366;SDS011;31100;55.848;37.636;2023-06-22T14:26:49;8.45;;;5.57;;
45366;SDS011;31100;55.848;37.636;2023-06-22T14:29:15;7.45;;;4.50;;
45366;SDS011;31100;55.848;37.636;2023-06-22T14:31:44;7.63;;;4.45;;
45366;SDS011;31100;55.848;37.636;2023-06-22T14:34:10;8.52;;;4.55;;
45366;SDS011;31100;55.848;37.636;2023-06-22T14:36:35;10.73;;;5.80;;